Time;durP1;ratioP1;P1;durP2;ratioP2;P2;SDS_P1;SDS_P2;PMS_P1;PMS_P2;Temp;Humidity;BMP_temperature;BMP_pressure;BME280_temperature;BME280_humidity;BME280_pressure;Samples;Min_cycle;Max_cycle;Signal;HPM_P1;HPM_P2
2023/08/02 00:01:05;;;;;;;7.80;6.97;;;;;;;22.81;53.99;94242.59;5115915;28;20200;-68
2023/08/02 00:03:35;;;;;;;6.40;5.82;;;;;;;22.80;54.11;94243.03;5115654;28;20213;-68
2023/08/02 00:06:05;;;;;;;6.55;5.95;;;;;;;22.80;54.08;94240.22;5115735;28;20192;-67
2023/08/02 00:08:34;;;;;;;6.65;6.05;;;;;;;22.77;54.50;94241.94;5115506;28;20195;-67
2023/08/02 00:11:03;;;;;;;5.38;5.00;;;;;;;22.76;54.23;94242.38;5115705;28;20563;-67
2023/08/02 00:13:30;;;;;;;5.18;4.68;;;;;;;22.77;53.61;94243.97;5116176;28;20225;-66
2023/08/02 00:16:03;;;;;;;5.20;4.80;;;;;;;22.77;53.60;94253.16;5115764;28;20245;-67
2023/08/02 00:18:31;;;;;;;5.50;4.75;;;;;;;22.80;53.92;94254.28;5115282;28;20533;-67
2023/08/02 00:21:01;;;;;;;5.75;5.20;;;;;;;22.79;54.53;94252.72;5115249;28;20647;-67
2023/08/02 00:23:31;;;;;;;5.47;5.07;;;;;;;22.76;54.53;94242.38;5114756;28;20573;-67
2023/08/02 00:25:59;;;;;;;5.20;4.80;;;;;;;22.77;54.45;94258.00;5115688;28;20206;-67
2023/08/02 00:28:27;;;;;;;4.93;4.53;;;;;;;22.75;54.68;94250.00;5115517;28;20196;-67
2023/08/02 00:30:58;;;;;;;5.60;5.10;;;;;;;22.76;54.22;94248.75;5114814;28;20548;-67
2023/08/02 00:33:31;;;;;;;5.20;4.80;;;;;;;22.81;54.01;94250.25;5114834;28;20196;-67
2023/08/02 00:35:59;;;;;;;4.72;4.40;;;;;;;22.83;53.65;94251.34;5116240;28;20180;-67
2023/08/02 00:38:31;;;;;;;5.15;4.63;;;;;;;22.81;54.42;94245.41;5115376;28;20200;-67
2023/08/02 00:41:03;;;;;;;5.00;4.60;;;;;;;22.71;54.36;94257.78;5115254;28;20271;-67
2023/08/02 00:43:41;;;;;;;4.72;4.32;;;;;;;22.73;54.58;94255.31;5115032;28;20219;-67
2023/08/02 00:46:09;;;;;;;5.25;4.85;;;;;;;22.75;54.85;94254.84;5115363;28;20187;-67
2023/08/02 00:48:42;;;;;;;4.80;4.43;;;;;;;22.70;54.95;94258.25;5114914;28;20195;-67
2023/08/02 00:51:15;;;;;;;4.93;4.53;;;;;;;22.70;55.03;94252.63;5114733;28;20211;-67
2023/08/02 00:53:44;;;;;;;5.10;4.32;;;;;;;22.69;55.01;94239.78;5115026;28;20200;-67
2023/08/02 00:56:12;;;;;;;5.20;4.70;;;;;;;22.62;55.08;94248.44;5114915;28;20195;-67
2023/08/02 00:58:39;;;;;;;4.55;4.25;;;;;;;22.54;55.35;94251.47;5114734;28;20211;-67
2023/08/02 01:01:08;;;;;;;4.75;4.40;;;;;;;22.57;55.27;94244.19;5114440;28;20551;-67
2023/08/02 01:03:37;;;;;;;6.10;4.85;;;;;;;22.58;55.36;94242.94;5114826;28;20551;-67
2023/08/02 01:06:12;;;;;;;5.18;4.65;;;;;;;22.53;55.78;94243.53;5115139;28;20195;-67
2023/08/02 01:08:45;;;;;;;6.63;5.00;;;;;;;22.53;55.81;94249.91;5114663;28;20190;-66
2023/08/02 01:11:21;;;;;;;5.00;4.50;;;;;;;22.50;55.90;94241.59;5114419;28;20226;-66
2023/08/02 01:13:51;;;;;;;5.35;4.80;;;;;;;22.45;56.42;94242.97;5114372;28;20199;-66
2023/08/02 01:16:23;;;;;;;4.78;4.43;;;;;;;22.38;56.49;94251.63;5114706;28;20196;-66
2023/08/02 01:18:53;;;;;;;4.90;4.60;;;;;;;22.37;56.64;94238.81;5114921;28;20200;-66
2023/08/02 01:21:23;;;;;;;5.40;4.90;;;;;;;22.39;56.31;94239.13;5114507;28;20191;-66
2023/08/02 01:23:51;;;;;;;5.00;4.60;;;;;;;22.38;56.64;94236.78;5114281;28;20246;-66
2023/08/02 01:26:21;;;;;;;5.35;4.85;;;;;;;22.34;57.19;94237.69;5115761;28;20195;-66
2023/08/02 01:28:56;;;;;;;5.18;4.68;;;;;;;22.35;57.12;94246.88;5118704;28;20211;-66
2023/08/02 01:31:24;;;;;;;5.13;4.72;;;;;;;22.38;56.02;94240.38;5119239;27;20207;-66
2023/08/02 01:33:58;;;;;;;5.47;4.97;;;;;;;22.45;55.56;94234.53;5118462;28;20207;-66
2023/08/02 01:36:33;;;;;;;4.80;4.40;;;;;;;22.44;56.26;94230.16;5118628;28;20203;-66
2023/08/02 01:39:01;;;;;;;4.88;4.45;;;;;;;22.41;56.52;94230.28;5118208;28;20184;-67
2023/08/02 01:41:32;;;;;;;5.50;5.00;;;;;;;22.39;56.72;94232.72;5118132;28;20210;-66
2023/08/02 01:44:02;;;;;;;5.30;4.80;;;;;;;22.30;56.91;94230.59;5118444;28;20203;-67
2023/08/02 01:46:30;;;;;;;5.60;4.85;;;;;;;22.28;57.10;94228.22;5118222;28;20627;-67
2023/08/02 01:48:59;;;;;;;5.60;4.90;;;;;;;22.29;56.73;94218.56;5118197;28;20607;-67
2023/08/02 01:51:34;;;;;;;5.20;4.70;;;;;;;22.31;56.29;94215.31;5118151;28;20224;-67
2023/08/02 01:54:04;;;;;;;5.00;4.60;;;;;;;22.28;56.58;94221.84;5118083;28;20248;-67
2023/08/02 01:56:32;;;;;;;5.88;5.30;;;;;;;22.26;56.67;94222.28;5118151;28;20219;-67
2023/08/02 01:59:00;;;;;;;5.47;4.93;;;;;;;22.29;56.80;94217.78;5117928;28;20192;-67
2023/08/02 02:01:31;;;;;;;5.45;4.85;;;;;;;22.27;57.08;94217.47;5117806;28;20196;-67
2023/08/02 02:04:02;;;;;;;5.13;4.70;;;;;;;22.23;56.97;94220.38;5117819;28;20248;-67
2023/08/02 02:06:34;;;;;;;5.30;4.90;;;;;;;22.25;56.71;94212.28;5117901;28;20211;-67
2023/08/02 02:09:02;;;;;;;5.50;5.00;;;;;;;22.26;56.19;94222.28;5117689;28;20195;-67
2023/08/02 02:11:32;;;;;;;6.05;4.95;;;;;;;22.25;56.52;94225.53;5117837;28;20216;-67
2023/08/02 02:14:00;;;;;;;6.00;5.50;;;;;;;22.20;57.30;94232.50;5117875;28;20195;-67
2023/08/02 02:16:30;;;;;;;5.75;5.00;;;;;;;22.18;57.09;94225.75;5117789;28;20203;-67
2023/08/02 02:18:57;;;;;;;5.57;5.10;;;;;;;22.17;57.29;94235.44;5117528;28;20206;-67
2023/08/02 02:21:28;;;;;;;5.50;5.10;;;;;;;22.11;57.58;94238.78;5117569;28;20211;-67
2023/08/02 02:23:59;;;;;;;5.80;5.30;;;;;;;22.13;56.90;94226.28;5117113;28;20673;-67
2023/08/02 02:26:27;;;;;;;6.15;5.47;;;;;;;22.13;57.15;94235.50;5117810;28;20199;-67
2023/08/02 02:28:55;;;;;;;5.72;5.20;;;;;;;22.05;57.49;94232.13;5117716;28;20196;-67
2023/08/02 02:31:23;;;;;;;5.63;5.22;;;;;;;22.04;57.55;94236.19;5117385;28;20222;-67
2023/08/02 02:33:51;;;;;;;5.65;5.20;;;;;;;22.03;57.53;94240.19;5117998;28;20187;-67
2023/08/02 02:36:19;;;;;;;6.07;5.47;;;;;;;22.03;57.68;94236.59;5117133;28;20191;-67
2023/08/02 02:38:46;;;;;;;6.32;5.55;;;;;;;22.02;57.73;94243.47;5115942;28;20199;-67
2023/08/02 02:41:15;;;;;;;5.60;5.20;;;;;;;22.02;57.46;94254.69;5117372;28;20195;-67
2023/08/02 02:43:43;;;;;;;5.75;5.13;;;;;;;22.03;57.54;94253.44;5116759;28;20511;-67
2023/08/02 02:46:11;;;;;;;7.05;5.88;;;;;;;21.98;57.92;94256.81;5117728;28;20176;-67
2023/08/02 02:48:38;;;;;;;6.03;5.43;;;;;;;21.97;57.92;94260.84;5117196;28;20207;-67
2023/08/02 02:51:05;;;;;;;5.60;5.20;;;;;;;22.01;58.00;94262.34;5117251;28;20204;-67
2023/08/02 02:53:35;;;;;;;6.30;5.70;;;;;;;22.02;57.58;94277.16;5117086;28;20215;-67
2023/08/02 02:56:05;;;;;;;5.95;5.35;;;;;;;22.04;57.11;94274.66;5117283;28;20191;-67
2023/08/02 02:58:37;;;;;;;5.68;5.18;;;;;;;22.07;56.39;94283.00;5117008;28;20196;-67
2023/08/02 03:01:05;;;;;;;6.85;4.85;;;;;;;22.07;55.89;94287.81;5116936;28;20283;-69
2023/08/02 03:03:34;;;;;;;5.32;4.85;;;;;;;22.08;55.82;94278.97;5116442;28;20204;-65
2023/08/02 03:06:04;;;;;;;6.05;5.45;;;;;;;22.12;56.07;94287.28;5117253;28;20619;-65
2023/08/02 03:08:34;;;;;;;6.20;5.60;;;;;;;22.13;56.08;94283.25;5117677;28;20602;-65
2023/08/02 03:11:02;;;;;;;5.85;5.35;;;;;;;22.12;56.16;94278.88;5116543;28;20202;-65
2023/08/02 03:13:33;;;;;;;6.00;5.60;;;;;;;22.10;56.19;94275.72;5116430;28;20223;-65
2023/08/02 03:16:02;;;;;;;6.40;5.80;;;;;;;22.08;56.71;94275.38;5116488;28;20192;-65
2023/08/02 03:18:33;;;;;;;6.30;5.78;;;;;;;22.04;56.19;94272.69;5116595;28;20203;-66
2023/08/02 03:21:05;;;;;;;6.25;5.75;;;;;;;22.03;56.52;94273.09;5116399;28;20231;-66
2023/08/02 03:23:35;;;;;;;6.25;5.75;;;;;;;22.04;56.60;94280.28;5115834;28;20598;-67
2023/08/02 03:26:03;;;;;;;6.43;5.82;;;;;;;22.04;56.74;94283.09;5116389;28;20203;-67
2023/08/02 03:28:31;;;;;;;6.30;5.80;;;;;;;22.00;57.04;94280.41;5116091;28;20206;-67
2023/08/02 03:30:59;;;;;;;6.50;5.90;;;;;;;21.95;57.49;94283.75;5116418;28;20195;-67
2023/08/02 03:33:32;;;;;;;6.82;6.18;;;;;;;21.94;57.54;94289.84;5115795;28;20219;-68
2023/08/02 03:36:03;;;;;;;6.78;6.13;;;;;;;21.94;57.66;94289.84;5116237;28;20200;-67
2023/08/02 03:38:31;;;;;;;7.65;6.32;;;;;;;21.95;57.46;94292.19;5115977;28;20183;-67
2023/08/02 03:40:59;;;;;;;6.28;5.78;;;;;;;21.96;57.37;94290.16;5115926;28;20192;-67
2023/08/02 03:43:27;;;;;;;6.60;6.10;;;;;;;21.99;56.89;94303.31;5115657;28;20207;-67
2023/08/02 03:45:56;;;;;;;6.72;6.13;;;;;;;21.95;56.97;94306.22;5116249;28;20227;-68
2023/08/02 03:48:25;;;;;;;6.82;6.22;;;;;;;21.92;57.04;94286.69;5115819;28;20196;-68
2023/08/02 03:51:00;;;;;;;6.82;6.22;;;;;;;21.88;57.15;94293.19;5116066;28;20210;-67
2023/08/02 03:53:30;;;;;;;7.80;6.97;;;;;;;21.88;57.08;94292.41;5115568;28;20223;-67
2023/08/02 03:55:58;;;;;;;6.38;5.88;;;;;;;21.87;57.07;94290.81;5115759;28;20191;-67
2023/08/02 03:58:28;;;;;;;8.05;6.63;;;;;;;21.88;56.95;94295.97;5115965;28;20192;-66
2023/08/02 04:00:56;;;;;;;6.55;6.00;;;;;;;21.91;57.38;94301.94;5115540;28;20204;-71
2023/08/02 04:03:24;;;;;;;6.53;5.93;;;;;;;21.95;56.92;94299.81;5115410;28;20187;-66
2023/08/02 04:05:59;;;;;;;6.43;5.93;;;;;;;21.97;56.59;94300.16;5115714;28;20200;-66
2023/08/02 04:08:29;;;;;;;6.40;5.88;;;;;;;21.98;56.65;94301.75;5115414;28;20195;-66
2023/08/02 04:11:06;;;;;;;6.90;6.15;;;;;;;22.02;56.66;94297.59;5115453;28;20200;-66
2023/08/02 04:13:37;;;;;;;7.28;6.32;;;;;;;22.00;56.74;94299.25;5115455;28;20211;-66
2023/08/02 04:16:08;;;;;;;6.80;6.20;;;;;;;21.96;56.85;94299.38;5116349;28;20649;-66
2023/08/02 04:18:38;;;;;;;6.95;6.25;;;;;;;21.97;56.97;94302.97;5115670;28;20196;-66
2023/08/02 04:21:07;;;;;;;7.15;6.45;;;;;;;21.98;57.20;94285.69;5115590;28;20203;-66
2023/08/02 04:23:37;;;;;;;7.28;6.60;;;;;;;21.99;57.75;94295.69;5114700;28;20246;-67
2023/08/02 04:26:10;;;;;;;6.75;6.15;;;;;;;21.98;58.05;94298.94;5115742;28;20199;-66
2023/08/02 04:28:41;;;;;;;7.53;6.75;;;;;;;22.02;57.33;94291.97;5115214;28;20249;-66
2023/08/02 04:31:11;;;;;;;7.38;6.65;;;;;;;22.02;56.93;94296.81;5098108;28;20214;-66
2023/08/02 04:33:40;;;;;;;7.70;6.05;;;;;;;22.04;57.02;94283.91;5115210;28;20211;-66
2023/08/02 04:36:11;;;;;;;7.55;6.43;;;;;;;;;;5115023;28;20196;-66
2023/08/02 04:38:41;;;;;;;7.88;6.28;;;;;;;;;;5115118;28;20196;-67
2023/08/02 04:41:17;;;;;;;6.60;5.90;;;;;;;22.04;57.05;94283.91;5115219;28;20196;-66
2023/08/02 04:43:47;;;;;;;6.72;6.22;;;;;;;22.08;56.97;94281.00;5115169;28;20607;-66
2023/08/02 04:46:15;;;;;;;6.97;6.30;;;;;;;22.11;56.62;94280.88;5115284;28;20256;-67
2023/08/02 04:48:43;;;;;;;7.30;6.15;;;;;;;22.14;56.35;94286.84;5115189;28;20595;-67
2023/08/02 04:51:16;;;;;;;7.03;6.32;;;;;;;22.15;56.18;94286.44;5114872;28;20570;-67
2023/08/02 04:53:47;;;;;;;7.95;6.20;;;;;;;22.16;56.20;94290.81;5114840;28;20226;-67
2023/08/02 04:56:18;;;;;;;6.35;5.78;;;;;;;22.20;56.41;94305.53;5114547;28;20229;-66
2023/08/02 04:58:45;;;;;;;7.05;6.43;;;;;;;22.25;56.33;94304.97;5114946;28;20188;-66
2023/08/02 05:01:12;;;;;;;5.75;5.25;;;;;;;22.30;56.30;94306.44;5114039;28;20207;-66
2023/08/02 05:03:43;;;;;;;8.55;6.35;;;;;;;22.40;56.78;94310.94;5114749;28;20198;-66
2023/08/02 05:06:12;;;;;;;7.05;6.32;;;;;;;22.43;57.35;94310.03;5115106;28;20187;-66
2023/08/02 05:08:48;;;;;;;7.20;6.60;;;;;;;22.41;56.98;94295.66;5116014;28;20191;-66
2023/08/02 05:11:16;;;;;;;7.93;6.93;;;;;;;22.40;56.66;94294.06;5114860;28;20201;-67
2023/08/02 05:13:44;;;;;;;8.60;7.07;;;;;;;22.39;56.84;94298.13;5115159;28;20230;-69
2023/08/02 05:16:13;;;;;;;9.65;7.78;;;;;;;22.40;57.48;94305.31;5114942;28;20200;-67
2023/08/02 05:18:44;;;;;;;9.82;6.88;;;;;;;22.41;57.12;94312.53;5114781;28;20256;-67
2023/08/02 05:21:12;;;;;;;7.88;6.90;;;;;;;22.46;56.71;94316.78;5114698;28;20207;-67
2023/08/02 05:23:46;;;;;;;7.53;6.82;;;;;;;22.48;56.80;94317.94;5114021;28;20256;-67
2023/08/02 05:26:16;;;;;;;8.75;6.95;;;;;;;22.50;56.86;94325.91;5114491;28;20190;-67
2023/08/02 05:28:44;;;;;;;8.73;6.38;;;;;;;22.49;56.41;94322.31;5114519;28;20676;-67
2023/08/02 05:31:16;;;;;;;7.22;6.68;;;;;;;22.49;56.50;94327.94;5114381;28;20199;-67
2023/08/02 05:33:46;;;;;;;7.70;6.97;;;;;;;22.49;56.68;94319.50;5114351;28;20216;-67
2023/08/02 05:36:16;;;;;;;7.63;6.55;;;;;;;22.47;56.76;94326.78;5114358;28;20184;-67
2023/08/02 05:38:49;;;;;;;7.95;7.15;;;;;;;22.47;56.96;94338.03;5114124;28;20188;-67
2023/08/02 05:41:16;;;;;;;8.18;7.38;;;;;;;22.49;57.29;94338.38;5114708;28;20192;-67
2023/08/02 05:43:48;;;;;;;10.50;7.72;;;;;;;22.51;57.44;94345.13;5114108;28;20196;-67
2023/08/02 05:46:18;;;;;;;9.18;7.20;;;;;;;22.53;57.38;94345.47;5115057;28;20245;-67
2023/08/02 05:48:50;;;;;;;8.18;7.05;;;;;;;22.53;57.44;94353.09;5115473;28;20210;-67
2023/08/02 05:51:21;;;;;;;7.55;6.80;;;;;;;22.54;57.46;94357.47;5115002;28;20196;-67
2023/08/02 05:53:57;;;;;;;7.75;6.95;;;;;;;22.56;57.26;94360.66;5115232;28;20291;-67
2023/08/02 05:56:26;;;;;;;7.38;6.70;;;;;;;22.57;57.12;94360.19;5115476;28;20202;-67
2023/08/02 05:58:56;;;;;;;8.27;7.05;;;;;;;22.57;57.38;94354.56;5114086;28;20192;-67
2023/08/02 06:01:24;;;;;;;8.25;7.45;;;;;;;22.55;56.92;94351.44;5114267;28;20215;-67
2023/08/02 06:03:52;;;;;;;8.20;7.40;;;;;;;22.53;56.92;94355.91;5114328;28;20203;-67
2023/08/02 06:06:20;;;;;;;8.35;7.55;;;;;;;22.57;56.31;94357.38;5114826;28;20200;-67
2023/08/02 06:08:50;;;;;;;9.38;8.50;;;;;;;22.58;55.84;94358.94;5114034;28;20630;-68
2023/08/02 06:11:20;;;;;;;8.57;7.78;;;;;;;22.58;55.85;94363.78;5114058;28;20195;-67
2023/08/02 06:13:51;;;;;;;7.40;6.78;;;;;;;22.59;56.10;94360.53;5117403;28;20222;-67
2023/08/02 06:16:18;;;;;;;8.40;7.60;;;;;;;22.65;55.83;94371.22;5117950;28;20196;-67
2023/08/02 06:18:45;;;;;;;8.52;7.53;;;;;;;22.65;55.53;94366.38;5117453;28;20203;-67
2023/08/02 06:21:15;;;;;;;8.77;8.07;;;;;;;22.65;55.98;94357.94;5117553;28;20199;-67
2023/08/02 06:23:46;;;;;;;9.45;8.65;;;;;;;22.66;55.84;94359.53;5117357;28;20694;-67
2023/08/02 06:26:17;;;;;;;8.60;7.70;;;;;;;22.74;56.26;94368.53;5117757;28;20203;-68
2023/08/02 06:28:45;;;;;;;9.50;8.25;;;;;;;22.82;56.94;94364.25;5117284;28;20611;-67
2023/08/02 06:31:13;;;;;;;8.98;8.27;;;;;;;22.91;57.01;94352.31;5117355;28;20195;-67
2023/08/02 06:33:41;;;;;;;9.48;8.60;;;;;;;23.04;56.31;94353.16;5117025;28;20219;-71
2023/08/02 06:36:09;;;;;;;8.35;7.65;;;;;;;23.09;56.28;94351.78;5117579;28;20203;-67
2023/08/02 06:38:38;;;;;;;9.50;8.60;;;;;;;23.11;56.15;94352.13;5117453;28;20206;-67
2023/08/02 06:41:06;;;;;;;9.23;8.32;;;;;;;23.14;56.18;94356.84;5117076;28;20229;-67
2023/08/02 06:43:34;;;;;;;9.68;8.88;;;;;;;23.14;55.94;94349.19;5118051;28;20189;-70
2023/08/02 06:46:03;;;;;;;9.00;8.13;;;;;;;23.14;55.79;94340.75;5117003;28;20206;-67
2023/08/02 06:48:31;;;;;;;9.35;8.52;;;;;;;23.18;56.01;94341.44;5116749;28;20210;-72
2023/08/02 06:51:01;;;;;;;10.13;9.32;;;;;;;23.23;55.76;94352.09;5117151;28;20196;-67
2023/08/02 06:53:29;;;;;;;9.73;8.88;;;;;;;23.26;55.65;94342.75;5116671;28;20233;-67
2023/08/02 06:55:56;;;;;;;9.63;8.70;;;;;;;23.30;55.88;94343.41;5117328;28;20265;-67
2023/08/02 06:58:26;;;;;;;10.13;9.20;;;;;;;23.36;55.59;94343.66;5117447;28;20192;-67
2023/08/02 07:00:53;;;;;;;10.27;9.38;;;;;;;23.41;55.76;94343.06;5116907;28;20211;-67
2023/08/02 07:03:23;;;;;;;10.23;9.32;;;;;;;23.43;55.65;94342.63;5116703;28;20200;-67
2023/08/02 07:05:51;;;;;;;10.25;9.35;;;;;;;23.44;55.47;94344.97;5116790;28;20200;-67
2023/08/02 07:08:20;;;;;;;8.68;7.97;;;;;;;23.47;55.20;94358.13;5116688;28;20192;-67
2023/08/02 07:10:48;;;;;;;9.10;8.32;;;;;;;23.59;54.73;94348.09;5116834;28;20199;-67
2023/08/02 07:13:15;;;;;;;9.00;8.20;;;;;;;23.71;54.68;94346.50;5116440;28;20216;-67
2023/08/02 07:15:46;;;;;;;8.93;8.13;;;;;;;23.80;54.08;94352.22;5116375;28;20210;-67
2023/08/02 07:18:16;;;;;;;9.05;8.15;;;;;;;23.89;54.05;94363.53;5116691;28;20195;-67
2023/08/02 07:20:46;;;;;;;8.52;7.82;;;;;;;23.91;54.16;94354.66;5116845;28;20202;-67
2023/08/02 07:23:14;;;;;;;9.85;8.95;;;;;;;23.93;54.29;94352.97;5115975;28;20199;-67
2023/08/02 07:25:43;;;;;;;9.82;8.93;;;;;;;24.04;54.02;94346.94;5115442;28;20228;-67
2023/08/02 07:28:11;;;;;;;10.63;9.60;;;;;;;24.06;54.53;94349.28;5116633;28;20195;-67
2023/08/02 07:30:39;;;;;;;10.20;9.30;;;;;;;24.04;54.52;94352.56;5116458;28;20207;-67
2023/08/02 07:33:07;;;;;;;9.77;8.98;;;;;;;24.03;54.56;94345.34;5116282;28;20204;-67
2023/08/02 07:35:39;;;;;;;9.85;9.15;;;;;;;24.03;54.74;94346.13;5116002;28;20641;-67
2023/08/02 07:38:12;;;;;;;9.25;8.45;;;;;;;24.13;53.72;94349.81;5116606;28;20198;-67
2023/08/02 07:40:39;;;;;;;9.32;8.52;;;;;;;24.19;53.50;94350.81;5116364;28;20207;-67
2023/08/02 07:43:09;;;;;;;9.75;8.82;;;;;;;24.29;53.93;94356.47;5115806;28;20199;-67
2023/08/02 07:45:39;;;;;;;9.07;8.32;;;;;;;24.35;53.92;94351.84;5115940;28;20522;-67
2023/08/02 07:48:08;;;;;;;9.80;8.93;;;;;;;24.40;54.00;94352.06;5115568;28;20199;-67
2023/08/02 07:50:34;;;;;;;9.43;8.63;;;;;;;24.44;54.03;94349.91;5116000;28;20311;-67
2023/08/02 07:53:03;;;;;;;9.52;8.63;;;;;;;24.54;53.78;94347.91;5115665;28;20249;-67
2023/08/02 07:55:35;;;;;;;10.35;9.25;;;;;;;24.60;54.08;94348.88;5115537;28;20203;-67
2023/08/02 07:58:05;;;;;;;10.25;9.45;;;;;;;24.64;54.11;94346.72;5115930;28;20210;-67
2023/08/02 08:00:34;;;;;;;11.27;10.27;;;;;;;24.73;53.60;94348.81;5115356;28;20556;-67
2023/08/02 08:03:03;;;;;;;10.57;9.57;;;;;;;24.79;53.60;94346.16;5115762;28;20192;-67
2023/08/02 08:05:31;;;;;;;10.77;9.88;;;;;;;24.82;53.39;94343.19;5098330;28;20207;-68
2023/08/02 08:07:59;;;;;;;10.18;9.25;;;;;;;24.92;53.57;94338.38;5116071;28;20199;-67
2023/08/02 08:10:27;;;;;;;9.48;8.65;;;;;;;25.01;52.78;94338.41;5116807;28;20176;-67
2023/08/02 08:12:59;;;;;;;9.35;8.55;;;;;;;25.10;52.36;94332.03;5115586;28;20203;-67
2023/08/02 08:15:26;;;;;;;9.80;9.00;;;;;;;25.19;51.65;94326.44;5115196;28;20211;-68
2023/08/02 08:17:54;;;;;;;9.20;8.40;;;;;;;25.22;51.53;94333.97;5115939;28;20294;-67
2023/08/02 08:20:22;;;;;;;9.25;8.45;;;;;;;25.28;51.56;94342.63;5115087;28;20199;-67
2023/08/02 08:22:50;;;;;;;9.25;8.27;;;;;;;25.37;51.48;94348.28;5115510;28;20196;-67
2023/08/02 08:25:19;;;;;;;9.68;8.88;;;;;;;25.45;51.73;94341.06;5114678;28;20551;-67
2023/08/02 08:27:47;;;;;;;9.70;8.73;;;;;;;25.48;50.86;94350.66;5114952;28;20200;-67
2023/08/02 08:30:16;;;;;;;9.15;8.32;;;;;;;25.47;51.20;94347.03;5115272;28;20207;-67
2023/08/02 08:32:44;;;;;;;8.93;8.23;;;;;;;25.45;50.57;94344.69;5115574;28;20195;-67
2023/08/02 08:35:12;;;;;;;9.20;8.35;;;;;;;25.50;50.46;94345.34;5114973;28;20219;-67
2023/08/02 08:37:41;;;;;;;8.88;8.00;;;;;;;25.54;49.98;94345.97;5114892;28;20685;-67
2023/08/02 08:40:17;;;;;;;9.18;8.38;;;;;;;25.59;49.81;94346.13;5115181;28;20226;-67
2023/08/02 08:42:53;;;;;;;8.85;8.15;;;;;;;25.65;47.74;94341.44;5115122;28;20207;-67
2023/08/02 08:45:26;;;;;;;8.15;7.55;;;;;;;25.74;47.97;94346.28;5114988;28;20611;-67
2023/08/02 08:47:53;;;;;;;9.27;8.32;;;;;;;25.83;47.96;94345.56;5115580;28;20231;-67
2023/08/02 08:50:24;;;;;;;7.43;6.35;;;;;;;25.97;44.76;94352.63;5114841;28;20207;-68
2023/08/02 08:52:53;;;;;;;6.85;6.25;;;;;;;26.06;44.67;94344.13;5115044;28;20233;-68
2023/08/02 08:55:20;;;;;;;6.50;5.90;;;;;;;26.18;43.40;94340.34;5114951;28;20314;-67
2023/08/02 08:57:50;;;;;;;6.25;5.75;;;;;;;26.26;42.87;94344.44;5114432;28;20203;-67
2023/08/02 09:00:18;;;;;;;6.90;6.30;;;;;;;26.36;42.83;94343.19;5115256;28;20534;-67
2023/08/02 09:02:48;;;;;;;5.70;5.20;;;;;;;26.54;38.99;94339.53;5115196;28;20241;-67
2023/08/02 09:05:17;;;;;;;5.32;4.80;;;;;;;26.68;38.15;94337.31;5114506;28;20287;-67
2023/08/02 09:07:45;;;;;;;6.05;5.25;;;;;;;26.80;39.00;94337.13;5114707;28;20195;-67
2023/08/02 09:10:16;;;;;;;5.60;4.65;;;;;;;26.89;40.09;94333.47;5114931;28;20200;-67
2023/08/02 09:12:45;;;;;;;5.50;5.00;;;;;;;27.02;39.78;94341.78;5114683;28;20200;-67
2023/08/02 09:15:14;;;;;;;5.95;5.35;;;;;;;27.11;39.31;94330.41;5114797;28;20219;-67
2023/08/02 09:17:56;;;;;;;6.07;5.47;;;;;;;27.14;39.71;94328.69;5114464;28;20203;-67
2023/08/02 09:20:28;;;;;;;7.82;5.15;;;;;;;27.11;40.13;94322.72;5114998;28;20195;-67
2023/08/02 09:22:56;;;;;;;5.13;4.72;;;;;;;27.26;39.51;94319.97;5113012;28;20233;-67
2023/08/02 09:25:26;;;;;;;5.00;4.60;;;;;;;27.40;37.93;94323.38;5114173;28;20265;-67
2023/08/02 09:27:58;;;;;;;5.60;5.18;;;;;;;27.44;39.59;94327.56;5114796;28;20240;-67
2023/08/02 09:30:28;;;;;;;5.43;5.03;;;;;;;27.48;38.14;94325.34;5114648;28;20192;-67
2023/08/02 09:33:05;;;;;;;6.50;5.90;;;;;;;27.54;40.85;94337.59;5114384;28;20256;-67
2023/08/02 09:35:37;;;;;;;6.32;5.88;;;;;;;27.64;41.64;94323.38;5114001;28;20230;-67
2023/08/02 09:38:20;;;;;;;5.38;4.40;;;;;;;27.83;36.81;94322.00;5114669;28;20196;-67
2023/08/02 09:40:48;;;;;;;6.60;6.05;;;;;;;27.80;39.49;94332.25;5114316;28;20195;-67
2023/08/02 09:43:16;;;;;;;6.13;5.63;;;;;;;27.79;40.15;94327.84;5115401;28;20279;-67
2023/08/02 09:45:47;;;;;;;6.63;6.13;;;;;;;27.72;41.22;94328.19;5114318;28;20200;-67
2023/08/02 09:48:21;;;;;;;6.28;5.82;;;;;;;27.96;41.12;94322.53;5117347;28;20604;-67
2023/08/02 09:51:03;;;;;;;6.32;5.82;;;;;;;28.01;40.33;94321.84;5117978;28;20226;-67
2023/08/02 09:53:35;;;;;;;6.57;6.07;;;;;;;27.83;40.03;94322.78;5117920;28;20184;-67
2023/08/02 09:56:02;;;;;;;5.85;5.22;;;;;;;27.72;40.07;94330.25;5118167;28;20237;-67
2023/08/02 09:58:31;;;;;;;6.32;5.72;;;;;;;27.80;40.46;94320.91;5118084;28;20195;-67
2023/08/02 10:00:59;;;;;;;6.10;5.60;;;;;;;27.87;40.36;94314.09;5117692;28;20214;-67
2023/08/02 10:03:36;;;;;;;6.13;5.53;;;;;;;27.76;40.58;94311.81;5118000;28;20203;-67
2023/08/02 10:06:09;;;;;;;6.65;6.15;;;;;;;27.78;40.82;94319.84;5118076;28;20201;-67
2023/08/02 10:08:41;;;;;;;6.63;6.13;;;;;;;27.79;40.56;94318.56;5118592;28;20211;-67
2023/08/02 10:11:12;;;;;;;6.32;5.72;;;;;;;27.76;40.76;94325.19;5118380;28;20252;-67
2023/08/02 10:13:41;;;;;;;6.97;6.30;;;;;;;27.66;40.60;94321.59;5117452;28;20267;-67
2023/08/02 10:16:09;;;;;;;6.60;5.65;;;;;;;27.65;40.70;94317.22;5117646;28;20196;-68
2023/08/02 10:18:39;;;;;;;6.72;6.13;;;;;;;27.71;40.95;94303.19;5118063;28;20191;-67
2023/08/02 10:21:08;;;;;;;6.90;6.30;;;;;;;27.81;41.35;94310.34;5117648;28;20195;-67
2023/08/02 10:23:36;;;;;;;7.45;6.20;;;;;;;27.99;40.23;94300.94;5117407;28;20196;-67
2023/08/02 10:26:10;;;;;;;6.57;5.95;;;;;;;27.92;39.99;94304.13;5118172;28;20608;-67
2023/08/02 10:28:42;;;;;;;6.63;6.03;;;;;;;28.01;39.79;94302.00;5117408;28;20286;-67
2023/08/02 10:31:14;;;;;;;6.75;6.15;;;;;;;28.00;39.60;94303.28;5117761;28;20203;-67
2023/08/02 10:33:45;;;;;;;6.57;6.05;;;;;;;28.02;39.77;94302.78;5117038;28;20277;-67
2023/08/02 10:36:14;;;;;;;6.68;6.15;;;;;;;28.12;39.15;94286.50;5117807;28;20268;-67
2023/08/02 10:38:54;;;;;;;6.75;6.15;;;;;;;28.14;39.42;94298.13;5117483;28;20187;-67
2023/08/02 10:41:25;;;;;;;6.15;5.65;;;;;;;28.31;39.53;94299.22;5117390;28;20203;-67
2023/08/02 10:44:29;;;;;;;5.93;5.43;;;;;;;28.62;38.37;94292.31;5116801;28;20199;-67
2023/08/02 10:47:29;;;;;;;6.60;5.22;;;;;;;28.71;38.09;94304.34;5114624;28;20199;-67
2023/08/02 10:50:03;;;;;;;5.82;5.30;;;;;;;28.70;37.83;94299.94;5117320;28;20192;-67
2023/08/02 10:52:35;;;;;;;5.72;5.32;;;;;;;28.79;37.94;94308.34;5117317;28;20206;-67
2023/08/02 10:55:14;;;;;;;6.68;5.18;;;;;;;28.96;37.45;94305.00;5117243;28;20215;-67
2023/08/02 10:57:44;;;;;;;6.53;6.00;;;;;;;28.88;37.07;94298.16;5116917;28;20203;-67
2023/08/02 11:00:23;;;;;;;6.50;5.90;;;;;;;28.74;36.98;94292.00;5117047;28;20206;-67
2023/08/02 11:02:56;;;;;;;6.35;5.80;;;;;;;28.84;37.48;94294.75;5116753;28;20203;-67
2023/08/02 11:05:45;;;;;;;5.80;5.30;;;;;;;28.89;37.23;94297.66;5116525;28;20211;-67
2023/08/02 11:08:13;;;;;;;5.97;5.45;;;;;;;28.84;36.80;94289.06;5116868;28;20286;-67
2023/08/02 11:10:51;;;;;;;5.65;5.18;;;;;;;28.98;37.26;94289.09;5117061;28;20188;-67
2023/08/02 11:13:21;;;;;;;5.10;4.70;;;;;;;29.09;37.07;94287.69;5116886;28;20599;-67
2023/08/02 11:15:48;;;;;;;5.82;5.32;;;;;;;29.16;37.06;94295.78;5116294;28;20215;-67
2023/08/02 11:18:17;;;;;;;5.60;5.10;;;;;;;29.41;36.70;94294.34;5116960;28;20207;-67
2023/08/02 11:20:47;;;;;;;5.38;4.97;;;;;;;29.58;35.86;94297.41;5116267;28;20622;-67
2023/08/02 11:23:24;;;;;;;5.70;5.20;;;;;;;29.56;35.65;94292.25;5117184;28;20530;-67
2023/08/02 11:25:52;;;;;;;5.15;4.75;;;;;;;29.38;35.52;94286.81;5116488;28;20198;-67
2023/08/02 11:28:20;;;;;;;5.85;5.40;;;;;;;29.34;35.73;94280.53;5116169;28;20204;-67
2023/08/02 11:30:55;;;;;;;5.32;4.82;;;;;;;29.40;35.54;94268.00;5116155;28;20585;-67
2023/08/02 11:33:23;;;;;;;5.22;4.72;;;;;;;29.66;35.56;94270.94;5116301;28;20195;-67
2023/08/02 11:35:58;;;;;;;5.68;5.20;;;;;;;29.59;35.01;94262.84;5116086;28;20324;-67
2023/08/02 11:38:25;;;;;;;5.95;5.45;;;;;;;29.34;35.51;94264.31;5115822;28;20650;-67
2023/08/02 11:40:54;;;;;;;5.40;5.00;;;;;;;29.32;35.87;94266.84;5116211;28;20278;-67
2023/08/02 11:43:37;;;;;;;5.75;5.22;;;;;;;29.62;35.45;94267.53;5116174;28;20191;-67
2023/08/02 11:46:25;;;;;;;10.50;5.00;;;;;;;29.74;35.54;94260.72;5116154;28;20634;-67
2023/08/02 11:48:59;;;;;;;5.50;5.10;;;;;;;29.68;35.23;94259.88;5116134;28;20223;-67